Weather at CX Ranch Number 2 Airport

Public forecast

Using degrees Fahrenheit for public forecast. Weather courtesy of forecast.io.

Closest aviation weather report (METAR) to CX Ranch Number 2 Airport

Closest report is Sandpoint Airport, 17.8 nm (33.1 km) WNW. Retrieved 2021/07/27 23:00 UTC (57 minutes ago):

KSZT 272300Z AUTO 24004KT 10SM -RA SCT050 SCT055 BKN100 27/07 A3004 RMK AO2

Closest aviation forecast (TAF) to CX Ranch Number 2 Airport

Closest forecast is Coeur D'Alene - Pappy Boyington Field, 33.8 nm (62.7 km) SW. Retrieved 2021/07/27 18:30 UTC (5 hours ago):

TAF KCOE 271727Z 2718/2818 18009KT P6SM SCT090 BKN120 BKN200 FM272100 22008KT P6SM BKN120 OVC200 FM280300 15004KT P6SM BKN120 OVC150 FM281200 13006KT P6SM BKN100